createdAt,value
2023-01-08T00:01:19.508Z,52.95
2023-01-08T00:03:46.568Z,53.11
2023-01-08T00:06:18.150Z,53.10
2023-01-08T00:08:45.708Z,53.24
2023-01-08T00:11:13.271Z,53.35
2023-01-08T00:13:40.497Z,53.41
2023-01-08T00:16:13.069Z,53.08
2023-01-08T00:18:40.739Z,53.49
2023-01-08T00:21:07.722Z,53.26
2023-01-08T00:23:36.322Z,53.39
2023-01-08T00:26:08.416Z,53.63
2023-01-08T00:28:36.036Z,53.56
2023-01-08T00:31:07.757Z,53.65
2023-01-08T00:33:35.583Z,53.63
2023-01-08T00:36:09.196Z,53.75
2023-01-08T00:38:36.040Z,53.60
2023-01-08T00:41:03.075Z,53.76
2023-01-08T00:43:30.066Z,54.10
2023-01-08T00:45:57.042Z,53.86
2023-01-08T00:48:25.116Z,53.87
2023-01-08T00:50:53.342Z,53.91
2023-01-08T00:53:21.780Z,53.88
2023-01-08T00:55:48.754Z,54.13
2023-01-08T00:58:16.310Z,54.02
2023-01-08T01:00:43.422Z,54.00
2023-01-08T01:03:10.319Z,54.23
2023-01-08T01:05:37.172Z,54.35
2023-01-08T01:08:04.429Z,54.16
2023-01-08T01:10:31.297Z,54.37
2023-01-08T01:12:58.143Z,54.28
2023-01-08T01:15:25.080Z,54.42
2023-01-08T01:17:51.974Z,54.47
2023-01-08T01:20:19.090Z,54.22
2023-01-08T01:22:46.018Z,54.25
2023-01-08T01:25:13.034Z,54.44
2023-01-08T01:27:40.112Z,54.31
2023-01-08T01:30:08.175Z,54.60
2023-01-08T01:32:35.178Z,54.56
2023-01-08T01:35:02.435Z,54.45
2023-01-08T01:37:29.519Z,54.86
2023-01-08T01:39:59.410Z,54.55
2023-01-08T01:42:41.332Z,54.67
2023-01-08T01:45:23.793Z,54.87
2023-01-08T01:48:06.969Z,54.73
2023-01-08T01:50:40.130Z,54.61
2023-01-08T01:53:19.693Z,54.82
2023-01-08T01:55:48.459Z,54.85
2023-01-08T01:58:16.635Z,54.69
2023-01-08T02:00:44.634Z,54.72
2023-01-08T02:03:14.332Z,54.85
2023-01-08T02:05:51.055Z,54.70
2023-01-08T02:08:39.310Z,54.88
2023-01-08T02:11:22.536Z,55.00
2023-01-08T02:14:08.583Z,54.85
2023-01-08T02:16:43.070Z,55.06
2023-01-08T02:19:45.294Z,54.89
2023-01-08T02:22:34.325Z,54.96
2023-01-08T02:25:27.448Z,54.94
2023-01-08T02:27:57.354Z,55.12
2023-01-08T02:30:25.265Z,55.16
2023-01-08T02:32:52.167Z,55.26
2023-01-08T02:35:19.152Z,55.04
2023-01-08T02:37:46.058Z,55.17
2023-01-08T02:40:48.018Z,54.97
2023-01-08T02:43:21.044Z,55.36
2023-01-08T02:45:49.397Z,55.24
2023-01-08T02:48:23.315Z,55.09
2023-01-08T02:50:55.894Z,55.24
2023-01-08T02:53:27.308Z,55.30
2023-01-08T02:55:59.407Z,54.98
2023-01-08T02:58:30.088Z,55.18
2023-01-08T03:00:57.847Z,55.25
2023-01-08T03:03:27.527Z,55.09
2023-01-08T03:06:00.506Z,55.21
2023-01-08T03:08:28.544Z,55.27
2023-01-08T03:11:01.071Z,55.15
2023-01-08T03:13:50.782Z,55.39
2023-01-08T03:16:38.549Z,55.37
2023-01-08T03:19:13.545Z,55.41
2023-01-08T03:21:42.827Z,55.36
2023-01-08T03:24:13.560Z,55.33
2023-01-08T03:26:42.309Z,55.26
2023-01-08T03:29:13.928Z,55.29
2023-01-08T03:31:42.126Z,55.14
2023-01-08T03:34:10.875Z,55.08
2023-01-08T03:36:41.401Z,55.23
2023-01-08T03:39:12.460Z,55.31
2023-01-08T03:41:39.529Z,55.41
2023-01-08T03:44:06.499Z,55.38
2023-01-08T03:46:38.119Z,55.05
2023-01-08T03:49:07.119Z,55.14
2023-01-08T03:51:41.939Z,55.14
2023-01-08T03:54:14.908Z,55.15
2023-01-08T03:56:42.018Z,55.08
2023-01-08T03:59:09.126Z,55.21
2023-01-08T04:01:36.067Z,55.10
2023-01-08T04:04:03.035Z,55.15
2023-01-08T04:06:29.873Z,55.15
2023-01-08T04:08:56.775Z,55.03
2023-01-08T04:11:23.562Z,55.16
2023-01-08T04:13:50.439Z,55.21
2023-01-08T04:16:17.306Z,55.27
2023-01-08T04:18:44.194Z,55.28
2023-01-08T04:21:11.044Z,55.37
2023-01-08T04:23:37.884Z,55.18
2023-01-08T04:26:08.913Z,55.28
2023-01-08T04:28:36.503Z,55.31
2023-01-08T04:31:12.268Z,55.12
2023-01-08T04:33:39.324Z,55.09
2023-01-08T04:36:06.421Z,55.28
2023-01-08T04:38:33.280Z,55.13
2023-01-08T04:41:01.641Z,55.08
2023-01-08T04:43:29.533Z,55.15
2023-01-08T04:46:00.723Z,55.11
2023-01-08T04:48:27.783Z,55.15
2023-01-08T04:50:54.599Z,55.09
2023-01-08T04:53:21.471Z,55.14
2023-01-08T04:55:48.299Z,55.36
2023-01-08T04:58:15.236Z,55.27
2023-01-08T05:00:42.305Z,55.42
2023-01-08T05:03:09.181Z,55.24
2023-01-08T05:05:36.570Z,55.15
2023-01-08T05:08:03.683Z,55.26
2023-01-08T05:10:30.882Z,55.27
2023-01-08T05:13:01.488Z,55.20
2023-01-08T05:15:28.834Z,55.27
2023-01-08T05:18:04.271Z,55.14
2023-01-08T05:20:33.022Z,55.47
2023-01-08T05:22:59.871Z,55.14
2023-01-08T05:25:26.814Z,55.49
2023-01-08T05:27:53.891Z,55.46
2023-01-08T05:30:20.841Z,55.43
2023-01-08T05:32:47.818Z,55.51
2023-01-08T05:35:14.650Z,55.33
2023-01-08T05:37:41.536Z,55.41
2023-01-08T05:40:08.914Z,55.46
2023-01-08T05:42:36.745Z,55.38
2023-01-08T05:45:05.151Z,55.53
2023-01-08T05:47:33.322Z,55.67
2023-01-08T05:50:00.191Z,55.12
2023-01-08T05:52:27.433Z,55.49
2023-01-08T05:54:54.287Z,55.65
2023-01-08T05:57:21.194Z,55.77
2023-01-08T05:59:48.009Z,55.46
2023-01-08T06:02:14.848Z,55.76
2023-01-08T06:04:41.771Z,55.57
2023-01-08T06:07:08.731Z,55.64
2023-01-08T06:09:35.644Z,55.83
2023-01-08T06:12:02.501Z,55.82
2023-01-08T06:14:29.309Z,55.73
2023-01-08T06:16:56.112Z,55.71
2023-01-08T06:19:23.051Z,55.64
2023-01-08T06:21:49.873Z,55.52
2023-01-08T06:24:16.658Z,55.59
2023-01-08T06:26:43.521Z,55.76
2023-01-08T06:29:10.403Z,55.69
2023-01-08T06:31:37.315Z,55.69
2023-01-08T06:34:04.180Z,55.83
2023-01-08T06:36:31.151Z,55.65
2023-01-08T06:38:58.193Z,55.54
2023-01-08T06:41:25.038Z,55.63
2023-01-08T06:43:51.932Z,55.54
2023-01-08T06:46:18.792Z,55.41
2023-01-08T06:48:46.065Z,55.26
2023-01-08T06:51:13.032Z,55.46
2023-01-08T06:53:39.857Z,55.50
2023-01-08T06:56:09.658Z,55.45
2023-01-08T06:58:38.203Z,55.31
2023-01-08T07:01:05.453Z,55.43
2023-01-08T07:03:32.451Z,55.30
2023-01-08T07:05:59.360Z,55.15
2023-01-08T07:08:26.180Z,55.44
2023-01-08T07:10:53.080Z,55.09
2023-01-08T07:13:19.972Z,55.15
2023-01-08T07:15:46.899Z,55.27
2023-01-08T07:18:13.860Z,55.20
2023-01-08T07:20:40.794Z,55.00
2023-01-08T07:23:10.591Z,54.96
2023-01-08T07:25:37.459Z,54.91
2023-01-08T07:28:04.372Z,54.75
2023-01-08T07:30:31.635Z,54.76
2023-01-08T07:33:00.459Z,54.74
2023-01-08T07:35:27.873Z,54.92
2023-01-08T07:37:54.898Z,54.98
2023-01-08T07:40:21.878Z,54.63
2023-01-08T07:42:48.796Z,53.50
2023-01-08T07:45:15.608Z,54.27
2023-01-08T07:47:42.453Z,54.65
2023-01-08T07:50:09.459Z,54.82
2023-01-08T07:52:36.284Z,55.25
2023-01-08T07:55:03.157Z,55.09
2023-01-08T07:57:30.329Z,55.05
2023-01-08T07:59:57.271Z,55.09
2023-01-08T08:02:24.206Z,55.23
2023-01-08T08:04:51.195Z,55.05
2023-01-08T08:07:18.078Z,55.07
2023-01-08T08:09:44.947Z,55.16
2023-01-08T08:12:11.812Z,54.92
2023-01-08T08:14:38.651Z,54.89
2023-01-08T08:17:05.632Z,54.90
2023-01-08T08:19:32.592Z,55.06
2023-01-08T08:21:59.474Z,55.47
2023-01-08T08:24:26.315Z,55.49
2023-01-08T08:26:54.625Z,55.87
2023-01-08T08:29:21.489Z,55.93
2023-01-08T08:31:48.400Z,56.18
2023-01-08T08:34:15.288Z,56.12
2023-01-08T08:36:42.247Z,56.19
2023-01-08T08:39:09.229Z,56.37
2023-01-08T08:41:36.465Z,56.32
2023-01-08T08:44:03.455Z,56.37
2023-01-08T08:46:30.519Z,56.16
2023-01-08T08:48:57.414Z,56.47
2023-01-08T08:51:24.449Z,55.86
2023-01-08T08:53:51.345Z,55.36
2023-01-08T08:56:18.525Z,55.44
2023-01-08T08:58:45.716Z,55.45
2023-01-08T09:01:12.791Z,55.50
2023-01-08T09:03:40.021Z,55.70
2023-01-08T09:06:07.466Z,55.77
2023-01-08T09:08:34.346Z,55.46
2023-01-08T09:11:03.087Z,55.47
2023-01-08T09:13:30.244Z,55.68
2023-01-08T09:16:00.806Z,55.64
2023-01-08T09:18:27.771Z,56.08
2023-01-08T09:20:54.660Z,55.61
2023-01-08T09:23:21.588Z,55.74
2023-01-08T09:25:48.442Z,55.63
2023-01-08T09:28:15.660Z,55.64
2023-01-08T09:30:42.677Z,55.47
2023-01-08T09:33:10.034Z,55.67
2023-01-08T09:35:36.901Z,55.44
2023-01-08T09:38:03.800Z,55.73
2023-01-08T09:40:41.026Z,55.43
2023-01-08T09:43:15.097Z,55.70
2023-01-08T09:45:43.349Z,55.55
2023-01-08T09:48:17.401Z,55.47
2023-01-08T09:50:44.646Z,55.55
2023-01-08T09:53:16.612Z,55.42
2023-01-08T09:55:45.105Z,55.25
2023-01-08T09:58:37.251Z,54.81
2023-01-08T10:01:05.631Z,55.19
2023-01-08T10:03:44.521Z,55.10
2023-01-08T10:06:13.867Z,54.89
2023-01-08T10:08:41.923Z,54.86
2023-01-08T10:11:10.583Z,54.74
2023-01-08T10:13:40.555Z,53.43
2023-01-08T10:16:10.476Z,51.47
2023-01-08T10:18:38.429Z,50.82
2023-01-08T10:21:06.083Z,50.33
2023-01-08T10:23:33.037Z,50.20
2023-01-08T10:26:02.476Z,51.03
2023-01-08T10:28:37.095Z,51.99
2023-01-08T10:31:11.754Z,52.09
2023-01-08T10:33:43.959Z,52.83
2023-01-08T10:36:14.277Z,52.86
2023-01-08T10:39:04.554Z,53.68
2023-01-08T10:41:37.310Z,53.29
2023-01-08T10:44:07.775Z,53.66
2023-01-08T10:46:44.136Z,53.84
2023-01-08T10:49:44.361Z,54.26
2023-01-08T10:52:26.401Z,54.08
2023-01-08T10:54:53.548Z,54.64
2023-01-08T10:57:31.439Z,54.47
2023-01-08T10:59:58.464Z,54.12
2023-01-08T11:02:37.301Z,54.36
2023-01-08T11:05:09.434Z,54.79
2023-01-08T11:07:37.391Z,54.49
2023-01-08T11:10:05.329Z,54.36
2023-01-08T11:12:36.778Z,54.46
2023-01-08T11:15:29.496Z,54.40
2023-01-08T11:18:30.405Z,54.63
2023-01-08T11:21:10.614Z,54.76
2023-01-08T11:23:37.787Z,54.16
2023-01-08T11:26:16.940Z,54.55
2023-01-08T11:28:46.782Z,54.35
2023-01-08T11:31:29.158Z,54.13
2023-01-08T11:34:02.668Z,53.96
2023-01-08T11:36:46.903Z,53.97
2023-01-08T11:39:14.050Z,53.77
2023-01-08T11:41:49.906Z,54.18
2023-01-08T11:44:59.688Z,54.43
2023-01-08T11:47:43.208Z,54.21
2023-01-08T11:50:25.542Z,53.98
2023-01-08T11:53:18.308Z,54.13
2023-01-08T11:56:16.708Z,53.89
2023-01-08T11:59:16.496Z,54.30
2023-01-08T12:01:56.281Z,54.10
2023-01-08T12:04:32.276Z,53.95
2023-01-08T12:07:02.388Z,54.06
2023-01-08T12:09:38.586Z,54.13
2023-01-08T12:12:23.669Z,54.04
2023-01-08T12:15:03.242Z,53.97
2023-01-08T12:17:39.169Z,53.93
2023-01-08T12:20:26.700Z,53.98
2023-01-08T12:22:56.627Z,53.81
2023-01-08T12:25:43.800Z,53.62
2023-01-08T12:28:13.773Z,53.44
2023-01-08T12:31:00.050Z,53.30
2023-01-08T12:33:45.116Z,53.54
2023-01-08T12:36:21.728Z,53.39
2023-01-08T12:38:56.053Z,53.23
2023-01-08T12:41:25.348Z,52.93
2023-01-08T12:44:05.058Z,53.11
2023-01-08T12:46:35.423Z,53.18
2023-01-08T12:49:04.771Z,53.12
2023-01-08T12:51:49.650Z,53.09
2023-01-08T12:54:28.439Z,53.30
2023-01-08T12:57:14.290Z,52.93
2023-01-08T13:00:01.096Z,53.14
2023-01-08T13:02:33.858Z,52.85
2023-01-08T13:05:14.023Z,52.68
2023-01-08T13:07:48.028Z,50.32
2023-01-08T13:10:33.122Z,49.15
2023-01-08T13:13:02.180Z,48.23
2023-01-08T13:15:33.079Z,47.86
2023-01-08T13:18:15.910Z,48.75
2023-01-08T13:20:43.229Z,49.93
2023-01-08T13:23:26.138Z,50.23
2023-01-08T13:25:55.761Z,50.69
2023-01-08T13:28:25.470Z,50.64
2023-01-08T13:30:55.927Z,50.99
2023-01-08T13:33:27.914Z,51.17
2023-01-08T13:36:13.527Z,51.47
2023-01-08T13:38:41.688Z,51.77
2023-01-08T13:41:27.572Z,51.92
2023-01-08T13:44:18.059Z,52.20
2023-01-08T13:46:55.473Z,52.26
2023-01-08T13:49:37.049Z,51.25
2023-01-08T13:52:20.894Z,48.68
2023-01-08T13:54:49.196Z,48.10
2023-01-08T13:57:18.962Z,49.38
2023-01-08T13:59:54.463Z,50.52
2023-01-08T14:02:33.445Z,50.79
2023-01-08T14:05:02.614Z,51.01
2023-01-08T14:07:31.000Z,51.23
2023-01-08T14:10:08.330Z,51.43
2023-01-08T14:12:35.592Z,51.49
2023-01-08T14:15:04.665Z,51.63
2023-01-08T14:17:32.656Z,51.59
2023-01-08T14:19:59.949Z,51.36
2023-01-08T14:22:31.773Z,51.00
2023-01-08T14:25:02.681Z,51.07
2023-01-08T14:27:31.261Z,51.10
2023-01-08T14:29:58.860Z,51.05
2023-01-08T14:32:30.736Z,51.08
2023-01-08T14:35:00.063Z,51.05
2023-01-08T14:37:27.068Z,51.05
2023-01-08T14:39:55.148Z,51.18
2023-01-08T14:42:50.357Z,51.21
2023-01-08T14:45:21.756Z,50.97
2023-01-08T14:47:52.210Z,51.02
2023-01-08T14:50:20.603Z,51.02
2023-01-08T14:52:48.598Z,51.13
2023-01-08T14:55:19.874Z,51.01
2023-01-08T14:57:48.586Z,51.04
2023-01-08T15:00:29.399Z,50.90
2023-01-08T15:02:56.997Z,50.91
2023-01-08T15:05:31.185Z,51.00
2023-01-08T15:08:23.720Z,50.94
2023-01-08T15:11:02.755Z,50.97
2023-01-08T15:13:38.499Z,51.18
2023-01-08T15:16:16.631Z,50.96
2023-01-08T15:18:49.413Z,51.43
2023-01-08T15:21:21.721Z,51.32
2023-01-08T15:23:55.523Z,51.24
2023-01-08T15:26:23.345Z,51.31
2023-01-08T15:28:55.353Z,51.42
2023-01-08T15:31:31.673Z,51.40
2023-01-08T15:34:03.071Z,50.99
2023-01-08T15:36:30.545Z,50.65
2023-01-08T15:38:57.965Z,50.94
2023-01-08T15:41:58.656Z,50.99
2023-01-08T15:44:26.241Z,50.74
2023-01-08T15:46:53.647Z,48.89
2023-01-08T15:49:20.870Z,48.26
2023-01-08T15:51:50.521Z,47.53
2023-01-08T15:54:21.806Z,48.36
2023-01-08T15:56:50.003Z,49.41
2023-01-08T15:59:17.072Z,49.64
2023-01-08T16:01:44.114Z,46.72
2023-01-08T16:04:11.157Z,47.60
2023-01-08T16:06:39.715Z,48.65
2023-01-08T16:09:06.971Z,49.40
2023-01-08T16:11:34.349Z,49.57
2023-01-08T16:14:01.480Z,49.80
2023-01-08T16:16:28.420Z,50.08
2023-01-08T16:18:55.655Z,50.14
2023-01-08T16:21:22.660Z,50.28
2023-01-08T16:23:49.687Z,50.42
2023-01-08T16:26:16.885Z,50.40
2023-01-08T16:28:43.956Z,50.38
2023-01-08T16:31:11.184Z,50.55
2023-01-08T16:33:39.226Z,50.62
2023-01-08T16:36:08.721Z,50.62
2023-01-08T16:38:36.492Z,50.83
2023-01-08T16:41:04.775Z,50.66
2023-01-08T16:43:40.069Z,50.53
2023-01-08T16:46:13.957Z,50.45
2023-01-08T16:48:42.659Z,50.69
2023-01-08T16:51:10.891Z,50.64
2023-01-08T16:53:38.065Z,50.42
2023-01-08T16:56:06.017Z,50.50
2023-01-08T16:58:35.274Z,50.53
2023-01-08T17:01:03.969Z,50.36
2023-01-08T17:03:31.019Z,50.31
2023-01-08T17:06:02.230Z,50.20
2023-01-08T17:08:29.251Z,50.29
2023-01-08T17:10:56.236Z,50.37
2023-01-08T17:13:23.327Z,50.11
2023-01-08T17:15:53.299Z,50.24
2023-01-08T17:18:20.733Z,50.09
2023-01-08T17:20:54.125Z,49.95
2023-01-08T17:23:21.105Z,49.77
2023-01-08T17:25:49.102Z,49.72
2023-01-08T17:28:16.843Z,49.40
2023-01-08T17:30:46.632Z,49.80
2023-01-08T17:33:16.504Z,49.57
2023-01-08T17:35:45.114Z,49.15
2023-01-08T17:38:12.595Z,49.45
2023-01-08T17:40:39.631Z,49.49
2023-01-08T17:43:08.337Z,49.39
2023-01-08T17:45:39.174Z,49.80
2023-01-08T17:48:06.804Z,49.69
2023-01-08T17:50:34.341Z,49.78
2023-01-08T17:53:01.371Z,49.82
2023-01-08T17:55:28.473Z,49.87
2023-01-08T17:57:55.517Z,49.85
2023-01-08T18:00:25.069Z,49.78
2023-01-08T18:02:52.441Z,49.78
2023-01-08T18:05:19.575Z,49.88
2023-01-08T18:07:46.675Z,49.78
2023-01-08T18:10:13.600Z,49.77
2023-01-08T18:12:40.840Z,50.08
2023-01-08T18:15:09.229Z,50.11
2023-01-08T18:17:36.153Z,50.22
2023-01-08T18:20:03.212Z,50.07
2023-01-08T18:22:30.890Z,50.19
2023-01-08T18:24:57.836Z,49.70
2023-01-08T18:27:25.183Z,49.49
2023-01-08T18:29:55.027Z,49.58
2023-01-08T18:32:26.519Z,48.73
2023-01-08T18:34:53.865Z,48.98
2023-01-08T18:37:23.399Z,49.32
2023-01-08T18:39:50.389Z,49.60
2023-01-08T18:42:26.410Z,49.70
2023-01-08T18:44:55.706Z,49.72
2023-01-08T18:47:23.999Z,49.96
2023-01-08T18:49:59.570Z,50.00
2023-01-08T18:52:26.471Z,49.73
2023-01-08T18:54:53.961Z,49.67
2023-01-08T18:57:21.124Z,49.80
2023-01-08T18:59:51.120Z,49.72
2023-01-08T19:02:28.236Z,49.72
2023-01-08T19:04:55.308Z,49.73
2023-01-08T19:07:22.674Z,48.97
2023-01-08T19:09:50.211Z,49.13
2023-01-08T19:12:17.201Z,49.25
2023-01-08T19:14:47.004Z,49.38
2023-01-08T19:17:14.221Z,49.69
2023-01-08T19:19:41.288Z,49.83
2023-01-08T19:22:08.405Z,49.93
2023-01-08T19:24:38.249Z,50.10
2023-01-08T19:27:06.284Z,50.15
2023-01-08T19:29:33.991Z,50.25
2023-01-08T19:32:01.246Z,50.37
2023-01-08T19:34:28.535Z,50.53
2023-01-08T19:36:55.749Z,50.59
2023-01-08T19:39:23.231Z,50.55
2023-01-08T19:42:10.808Z,50.82
2023-01-08T19:44:39.236Z,50.54
2023-01-08T19:47:07.103Z,50.73
2023-01-08T19:49:34.373Z,50.84
2023-01-08T19:52:01.270Z,50.86
2023-01-08T19:54:28.444Z,50.80
2023-01-08T19:56:55.929Z,50.19
2023-01-08T19:59:23.212Z,49.41
2023-01-08T20:01:50.437Z,49.91
2023-01-08T20:04:17.648Z,50.07
2023-01-08T20:06:44.825Z,50.17
2023-01-08T20:09:12.430Z,50.39
2023-01-08T20:11:39.363Z,50.44
2023-01-08T20:14:06.359Z,50.60
2023-01-08T20:16:33.429Z,50.75
2023-01-08T20:19:04.866Z,50.87
2023-01-08T20:21:34.233Z,51.31
2023-01-08T20:24:07.211Z,51.50
2023-01-08T20:26:36.399Z,51.38
2023-01-08T20:29:04.379Z,51.33
2023-01-08T20:31:33.080Z,51.32
2023-01-08T20:34:02.082Z,51.62
2023-01-08T20:36:31.326Z,51.55
2023-01-08T20:39:01.564Z,51.32
2023-01-08T20:41:29.895Z,51.26
2023-01-08T20:43:57.809Z,51.09
2023-01-08T20:46:28.855Z,51.19
2023-01-08T20:49:04.326Z,51.08
2023-01-08T20:51:33.041Z,51.17
2023-01-08T20:54:05.766Z,51.16
2023-01-08T20:56:34.035Z,50.98
2023-01-08T20:59:02.803Z,51.24
2023-01-08T21:01:35.968Z,50.95
2023-01-08T21:04:05.695Z,51.22
2023-01-08T21:06:34.284Z,51.10
2023-01-08T21:09:07.508Z,51.67
2023-01-08T21:11:37.246Z,52.75
2023-01-08T21:14:05.851Z,53.48
2023-01-08T21:16:35.425Z,53.74
2023-01-08T21:19:05.981Z,53.60
2023-01-08T21:21:39.105Z,53.76
2023-01-08T21:24:09.574Z,54.10
2023-01-08T21:26:40.012Z,54.38
2023-01-08T21:29:09.373Z,54.70
2023-01-08T21:31:41.070Z,54.61
2023-01-08T21:34:09.231Z,54.36
2023-01-08T21:36:36.806Z,54.12
2023-01-08T21:39:04.079Z,54.02
2023-01-08T21:41:50.809Z,54.47
2023-01-08T21:44:41.891Z,54.27
2023-01-08T21:47:12.615Z,54.12
2023-01-08T21:49:41.341Z,53.77
2023-01-08T21:52:27.617Z,53.44
2023-01-08T21:54:54.784Z,53.30
2023-01-08T21:57:22.268Z,53.33
2023-01-08T21:59:51.118Z,53.06
2023-01-08T22:02:21.612Z,53.01
2023-01-08T22:04:49.310Z,52.92
2023-01-08T22:07:16.856Z,52.86
2023-01-08T22:09:44.617Z,52.60
2023-01-08T22:12:14.576Z,52.69
2023-01-08T22:14:42.455Z,52.49
2023-01-08T22:17:09.959Z,52.53
2023-01-08T22:19:44.276Z,52.48
2023-01-08T22:22:11.499Z,52.57
2023-01-08T22:24:39.787Z,52.33
2023-01-08T22:27:08.310Z,52.39
2023-01-08T22:29:36.698Z,52.54
2023-01-08T22:32:04.506Z,52.44
2023-01-08T22:34:35.383Z,52.24
2023-01-08T22:37:02.911Z,52.25
2023-01-08T22:39:30.364Z,52.30
2023-01-08T22:41:58.126Z,52.21
2023-01-08T22:44:25.207Z,52.56
2023-01-08T22:46:52.456Z,52.25
2023-01-08T22:49:19.386Z,51.74
2023-01-08T22:51:46.562Z,51.62
2023-01-08T22:54:14.759Z,51.67
2023-01-08T22:56:41.691Z,51.57
2023-01-08T22:59:08.919Z,51.73
2023-01-08T23:01:36.151Z,51.81
2023-01-08T23:04:03.281Z,51.84
2023-01-08T23:06:32.224Z,51.94
2023-01-08T23:08:59.574Z,51.87
2023-01-08T23:11:30.261Z,51.69
2023-01-08T23:13:57.422Z,51.81
2023-01-08T23:16:25.766Z,51.93
2023-01-08T23:18:56.797Z,51.81
2023-01-08T23:21:27.104Z,51.94
2023-01-08T23:23:55.864Z,51.87
2023-01-08T23:26:30.685Z,51.74
2023-01-08T23:28:59.448Z,51.77
2023-01-08T23:31:30.549Z,51.79
2023-01-08T23:33:58.316Z,52.06
2023-01-08T23:36:26.110Z,51.88
2023-01-08T23:38:55.130Z,52.01
2023-01-08T23:41:32.028Z,51.95
2023-01-08T23:44:08.918Z,51.95
2023-01-08T23:46:36.541Z,51.92
2023-01-08T23:49:04.758Z,52.04
2023-01-08T23:51:31.698Z,52.01
2023-01-08T23:53:58.699Z,51.85
2023-01-08T23:56:26.129Z,52.00
2023-01-08T23:58:54.105Z,51.94
